CMA CGM La Boussole — A8FZ6 — position and weather

sailwx.info

Track history (hours):
 
Tides and Currents Weather Stations Pressure Air Temp Water Temp Dewpoint Dewpoint Depression Visibility Wind Speed Wind Dir Waves Ship Positions

CMA CGM La Boussole

Last reported at 2016-Apr-30 15:33 UTC. Time now 2016-May-02 10:48 UTC.
Position N 43°19' E 004°59'.

Length 210.1 m; beam 30.2 m; draft 11.5 m.

Type: Ship (hazmat cat A). MMSI: 636017045.

Date/timePositionNaut miles runAvg speedWind from/ knotsBaromVisibWave heightAir tempDewpointWater temp
2016-Apr-30 15:33N 43°19' E 004°59'8 3.5
2016-Apr-30 13:17N 43°25' E 004°51'0 0.0
2016-Apr-30 12:20N 43°25' E 004°51'0 0.0
2016-Apr-30 11:32N 43°25' E 004°51'0 0.0
2016-Apr-30 10:32N 43°25' E 004°51'0 0.0
2016-Apr-30 09:29N 43°25' E 004°51'0 0.0
2016-Apr-30 08:32N 43°25' E 004°51'0 0.0
2016-Apr-30 07:32N 43°25' E 004°51'0 0.0
2016-Apr-30 06:32N 43°25' E 004°51'0 0.0
2016-Apr-30 05:32N 43°25' E 004°51'0 0.0
2016-Apr-30 04:32N 43°25' E 004°51'0 0.0
2016-Apr-30 03:33N 43°25' E 004°51'6 6.2
2016-Apr-30 02:33N 43°22' E 004°58'8 8.3
2016-Apr-30 01:33N 43°14' E 005°02'8516.2
2016-Apr-29 20:17N 43°07' E 006°58'1620.1
2016-Apr-29 19:30N 43°16' E 007°16'3819.5
2016-Apr-29 17:33N 43°39' E 007°58'1919.1
2016-Apr-29 16:33N 43°50' E 008°19'1918.8
2016-Apr-29 15:33N 44°04' E 008°37'1918.7
2016-Apr-29 14:33N 44°18' E 008°55'7 6.4
2016-Apr-29 13:32N 44°24' E 008°54'0 0.0
2016-Apr-29 12:32N 44°24' E 008°54'0 0.0
2016-Apr-29 11:32N 44°24' E 008°54'0 0.0
2016-Apr-29 10:32N 44°24' E 008°54'0 0.0
2016-Apr-29 09:32N 44°24' E 008°54'0 0.0
2016-Apr-29 08:32N 44°24' E 008°54'0 0.0
2016-Apr-29 07:32N 44°24' E 008°54'0 0.0
2016-Apr-29 06:32N 44°24' E 008°54'0 0.0
2016-Apr-29 05:29N 44°24' E 008°54'0 0.0
2016-Apr-29 04:29N 44°24' E 008°54'0 0.0
2016-Apr-29 03:32N 44°24' E 008°54'0 0.0
2016-Apr-29 02:32N 44°24' E 008°54'0 0.0
2016-Apr-29 01:32N 44°24' E 008°54'0 0.0
2016-Apr-29 00:29N 44°24' E 008°54'0 0.0
2016-Apr-28 23:29N 44°24' E 008°54'0 0.0
2016-Apr-28 22:32N 44°24' E 008°54'0 0.0
2016-Apr-28 21:32N 44°24' E 008°54'0 0.0
2016-Apr-28 20:32N 44°24' E 008°54'0 0.0
2016-Apr-28 19:29N 44°24' E 008°54'0 0.0
2016-Apr-28 18:29N 44°24' E 008°54'3 3.3
2016-Apr-28 17:33N 44°22' E 008°58'1514.6
2016-Apr-28 16:33N 44°11' E 009°10'2221.5
2016-Apr-28 15:33N 43°54' E 009°29'2121.2
2016-Apr-28 14:33N 43°38' E 009°48'1817.8
2016-Apr-28 13:33N 43°31' E 010°10'7 6.8
2016-Apr-28 12:33N 43°34' E 010°18'0 0.2
2016-Apr-28 11:33N 43°34' E 010°18'0 0.0
2016-Apr-28 10:33N 43°34' E 010°18'0 0.0
2016-Apr-28 09:33N 43°34' E 010°18'0 0.0
2016-Apr-28 08:30N 43°34' E 010°18'0 0.0
2016-Apr-28 07:27N 43°34' E 010°18'0 0.0
2016-Apr-28 06:33N 43°34' E 010°18'0 0.0
2016-Apr-28 05:33N 43°34' E 010°18'0 0.0
2016-Apr-28 04:33N 43°34' E 010°18'0 0.0
2016-Apr-28 03:33N 43°34' E 010°18'0 0.0
2016-Apr-28 02:33N 43°34' E 010°18'0 0.0
2016-Apr-28 01:33N 43°34' E 010°18'0 0.4
2016-Apr-28 00:33N 43°34' E 010°18'4 4.2
2016-Apr-27 23:33N 43°31' E 010°15'5 4.6
2016-Apr-27 22:33N 43°26' E 010°16'2 1.7
2016-Apr-27 21:33N 43°26' E 010°14'2 1.9
2016-Apr-27 20:33N 43°26' E 010°11'2 2.1
2016-Apr-27 19:33N 43°26' E 010°08'2 2.0
2016-Apr-27 18:33N 43°26' E 010°06'1 0.8
2016-Apr-27 17:33N 43°25' E 010°06'7 7.3
2016-Apr-27 16:33N 43°26' E 010°16'2 1.9
2016-Apr-27 15:33N 43°26' E 010°14'2 2.2
2016-Apr-27 14:33N 43°26' E 010°11'2 1.9
2016-Apr-27 13:33N 43°26' E 010°08'2 2.3
2016-Apr-27 12:33N 43°26' E 010°05'4 4.2
2016-Apr-27 11:33N 43°25' E 010°11'2 2.2
2016-Apr-27 10:33N 43°26' E 010°08'2 2.2
2016-Apr-27 09:33N 43°25' E 010°05'10 9.5
2016-Apr-27 08:33N 43°18' E 010°13'1 1.4
2016-Apr-27 07:33N 43°17' E 010°12'2 1.8
2016-Apr-27 06:33N 43°16' E 010°10'2 1.9
2016-Apr-27 05:33N 43°16' E 010°07'2 2.2
2016-Apr-27 04:33N 43°15' E 010°04'2 2.5
2016-Apr-27 03:33N 43°15' E 010°01'3 2.7
2016-Apr-27 02:33N 43°15' E 009°57'3 2.6
2016-Apr-27 01:33N 43°14' E 009°53'3 2.7
2016-Apr-27 00:33N 43°14' E 009°50'4 4.1
2016-Apr-26 23:33N 43°15' E 009°55'1211.9
2016-Apr-26 22:33N 43°21' E 010°09'5 5.5
2016-Apr-26 21:33N 43°24' E 010°16'2 2.5
2016-Apr-26 20:33N 43°24' E 010°12'2 2.4
2016-Apr-26 19:33N 43°24' E 010°09'2 2.3
2016-Apr-26 18:33N 43°24' E 010°06'1 0.7
2016-Apr-26 17:33N 43°23' E 010°06'8 8.4
2016-Apr-26 16:33N 43°23' E 010°17'2 1.8
2016-Apr-26 15:33N 43°23' E 010°15'2 2.4
2016-Apr-26 14:33N 43°23' E 010°12'3 3.2
2016-Apr-26 13:33N 43°26' E 010°11'4 4.1
2016-Apr-26 12:33N 43°29' E 010°14'1 1.3
2016-Apr-26 11:32N 43°30' E 010°16'0 0.2
2016-Apr-26 10:32N 43°30' E 010°16'0 0.0
2016-Apr-26 09:32N 43°30' E 010°16'0 0.0
2016-Apr-26 08:32N 43°30' E 010°16'0 0.1
2016-Apr-26 07:32N 43°30' E 010°15'0 0.1
2016-Apr-26 06:32N 43°30' E 010°15'0 0.0
2016-Apr-26 05:32N 43°30' E 010°15'0 0.0
2016-Apr-26 04:29N 43°30' E 010°15'0 0.0
2016-Apr-26 03:32N 43°30' E 010°15'0 0.0
2016-Apr-26 02:32N 43°30' E 010°15'2 1.6
2016-Apr-26 01:34N 43°29' E 010°13'1110.9
2016-Apr-26 00:34N 43°21' E 010°03'1211.7
2016-Apr-25 23:34N 43°17' E 009°48'1211.9
2016-Apr-25 22:33N 43°14' E 009°32'1211.9
2016-Apr-25 21:33N 43°10' E 009°17'30711.8
2016-Apr-24 19:33N 40°36' E 003°21'1212.1
2016-Apr-24 18:33N 40°27' E 003°10'1717.5
2016-Apr-24 17:33N 40°14' E 002°55'2120.9
2016-Apr-24 16:33N 39°59' E 002°36'2121.0
2016-Apr-24 15:32N 39°44' E 002°16'2120.9
2016-Apr-24 14:33N 39°31' E 001°55'2120.5
2016-Apr-24 13:33N 39°18' E 001°35'17319.2
2016-Apr-24 04:32N 37°04' W 000°46'22119.3
2016-Apr-23 17:04N 36°01' W 005°10'1019.8
2016-Apr-23 16:34N 36°04' W 005°22'3 2.8
2016-Apr-23 15:31N 36°06' W 005°25'0 0.0
2016-Apr-23 14:25N 36°06' W 005°25'0 0.0
2016-Apr-23 13:31N 36°06' W 005°25'0 0.0
2016-Apr-23 12:31N 36°06' W 005°25'0 0.1
2016-Apr-23 11:31N 36°05' W 005°25'0 0.0
2016-Apr-23 10:31N 36°05' W 005°25'0 0.0
2016-Apr-23 09:31N 36°05' W 005°25'0 0.2
2016-Apr-23 08:22N 36°05' W 005°25'0 0.0
2016-Apr-23 07:25N 36°05' W 005°25'0 0.1
2016-Apr-23 06:31N 36°05' W 005°25'2 1.7
2016-Apr-23 05:33N 36°07' W 005°25'1 1.1
2016-Apr-23 04:29N 36°08' W 005°25'0 0.0
2016-Apr-23 03:28N 36°08' W 005°25'0 0.0
2016-Apr-22 22:19N 36°08' W 005°25'0 0.0
2016-Apr-22 21:25N 36°08' W 005°25'0 0.0
2016-Apr-22 20:31N 36°08' W 005°25'0 0.0
2016-Apr-22 19:29N 36°08' W 005°25'1 1.5
2016-Apr-22 18:33N 36°08' W 005°24'5 5.2
2016-Apr-22 17:33N 36°04' W 005°20'3 2.5
2016-Apr-22 16:33N 36°03' W 005°22'5 5.2
2016-Apr-22 15:33N 35°58' W 005°26'  
Track history (hours):
 
Tides and Currents Weather Stations Pressure Air Temp Water Temp Dewpoint Dewpoint Depression Visibility Wind Speed Wind Dir Waves Ship Positions

CMA CGM La Boussole

Last reported at 2016-Apr-30 15:33 UTC. Time now 2016-May-02 10:48 UTC.
Position N 43°19' E 004°59'.

Length 210.1 m; beam 30.2 m; draft 11.5 m.

Type: Ship (hazmat cat A). MMSI: 636017045.

Date/timePositionNaut miles runAvg speedWind from/ knotsBaromVisibWave heightAir tempDewpointWater temp
2016-Apr-30 15:33N 43°19' E 004°59'8 3.5
2016-Apr-30 13:17N 43°25' E 004°51'0 0.0
2016-Apr-30 12:20N 43°25' E 004°51'0 0.0
2016-Apr-30 11:32N 43°25' E 004°51'0 0.0
2016-Apr-30 10:32N 43°25' E 004°51'0 0.0
2016-Apr-30 09:29N 43°25' E 004°51'0 0.0
2016-Apr-30 08:32N 43°25' E 004°51'0 0.0
2016-Apr-30 07:32N 43°25' E 004°51'0 0.0
2016-Apr-30 06:32N 43°25' E 004°51'0 0.0
2016-Apr-30 05:32N 43°25' E 004°51'0 0.0
2016-Apr-30 04:32N 43°25' E 004°51'0 0.0
2016-Apr-30 03:33N 43°25' E 004°51'6 6.2
2016-Apr-30 02:33N 43°22' E 004°58'8 8.3
2016-Apr-30 01:33N 43°14' E 005°02'8516.2
2016-Apr-29 20:17N 43°07' E 006°58'1620.1
2016-Apr-29 19:30N 43°16' E 007°16'3819.5
2016-Apr-29 17:33N 43°39' E 007°58'1919.1
2016-Apr-29 16:33N 43°50' E 008°19'1918.8
2016-Apr-29 15:33N 44°04' E 008°37'1918.7
2016-Apr-29 14:33N 44°18' E 008°55'7 6.4
2016-Apr-29 13:32N 44°24' E 008°54'0 0.0
2016-Apr-29 12:32N 44°24' E 008°54'0 0.0
2016-Apr-29 11:32N 44°24' E 008°54'0 0.0
2016-Apr-29 10:32N 44°24' E 008°54'0 0.0
2016-Apr-29 09:32N 44°24' E 008°54'0 0.0
2016-Apr-29 08:32N 44°24' E 008°54'0 0.0
2016-Apr-29 07:32N 44°24' E 008°54'0 0.0
2016-Apr-29 06:32N 44°24' E 008°54'0 0.0
2016-Apr-29 05:29N 44°24' E 008°54'0 0.0
2016-Apr-29 04:29N 44°24' E 008°54'0 0.0
2016-Apr-29 03:32N 44°24' E 008°54'0 0.0
2016-Apr-29 02:32N 44°24' E 008°54'0 0.0
2016-Apr-29 01:32N 44°24' E 008°54'0 0.0
2016-Apr-29 00:29N 44°24' E 008°54'0 0.0
2016-Apr-28 23:29N 44°24' E 008°54'0 0.0
2016-Apr-28 22:32N 44°24' E 008°54'0 0.0
2016-Apr-28 21:32N 44°24' E 008°54'0 0.0
2016-Apr-28 20:32N 44°24' E 008°54'0 0.0
2016-Apr-28 19:29N 44°24' E 008°54'0 0.0
2016-Apr-28 18:29N 44°24' E 008°54'3 3.3
2016-Apr-28 17:33N 44°22' E 008°58'1514.6
2016-Apr-28 16:33N 44°11' E 009°10'2221.5
2016-Apr-28 15:33N 43°54' E 009°29'2121.2
2016-Apr-28 14:33N 43°38' E 009°48'1817.8
2016-Apr-28 13:33N 43°31' E 010°10'7 6.8
2016-Apr-28 12:33N 43°34' E 010°18'0 0.2
2016-Apr-28 11:33N 43°34' E 010°18'0 0.0
2016-Apr-28 10:33N 43°34' E 010°18'0 0.0
2016-Apr-28 09:33N 43°34' E 010°18'0 0.0
2016-Apr-28 08:30N 43°34' E 010°18'0 0.0
2016-Apr-28 07:27N 43°34' E 010°18'0 0.0
2016-Apr-28 06:33N 43°34' E 010°18'0 0.0
2016-Apr-28 05:33N 43°34' E 010°18'0 0.0
2016-Apr-28 04:33N 43°34' E 010°18'0 0.0
2016-Apr-28 03:33N 43°34' E 010°18'0 0.0
2016-Apr-28 02:33N 43°34' E 010°18'0 0.0
2016-Apr-28 01:33N 43°34' E 010°18'0 0.4
2016-Apr-28 00:33N 43°34' E 010°18'4 4.2
2016-Apr-27 23:33N 43°31' E 010°15'5 4.6
2016-Apr-27 22:33N 43°26' E 010°16'2 1.7
2016-Apr-27 21:33N 43°26' E 010°14'2 1.9
2016-Apr-27 20:33N 43°26' E 010°11'2 2.1
2016-Apr-27 19:33N 43°26' E 010°08'2 2.0
2016-Apr-27 18:33N 43°26' E 010°06'1 0.8
2016-Apr-27 17:33N 43°25' E 010°06'7 7.3
2016-Apr-27 16:33N 43°26' E 010°16'2 1.9
2016-Apr-27 15:33N 43°26' E 010°14'2 2.2
2016-Apr-27 14:33N 43°26' E 010°11'2 1.9
2016-Apr-27 13:33N 43°26' E 010°08'2 2.3
2016-Apr-27 12:33N 43°26' E 010°05'4 4.2
2016-Apr-27 11:33N 43°25' E 010°11'2 2.2
2016-Apr-27 10:33N 43°26' E 010°08'2 2.2
2016-Apr-27 09:33N 43°25' E 010°05'10 9.5
2016-Apr-27 08:33N 43°18' E 010°13'1 1.4
2016-Apr-27 07:33N 43°17' E 010°12'2 1.8
2016-Apr-27 06:33N 43°16' E 010°10'2 1.9
2016-Apr-27 05:33N 43°16' E 010°07'2 2.2
2016-Apr-27 04:33N 43°15' E 010°04'2 2.5
2016-Apr-27 03:33N 43°15' E 010°01'3 2.7
2016-Apr-27 02:33N 43°15' E 009°57'3 2.6
2016-Apr-27 01:33N 43°14' E 009°53'3 2.7
2016-Apr-27 00:33N 43°14' E 009°50'4 4.1
2016-Apr-26 23:33N 43°15' E 009°55'1211.9
2016-Apr-26 22:33N 43°21' E 010°09'5 5.5
2016-Apr-26 21:33N 43°24' E 010°16'2 2.5
2016-Apr-26 20:33N 43°24' E 010°12'2 2.4
2016-Apr-26 19:33N 43°24' E 010°09'2 2.3
2016-Apr-26 18:33N 43°24' E 010°06'1 0.7
2016-Apr-26 17:33N 43°23' E 010°06'8 8.4
2016-Apr-26 16:33N 43°23' E 010°17'2 1.8
2016-Apr-26 15:33N 43°23' E 010°15'2 2.4
2016-Apr-26 14:33N 43°23' E 010°12'3 3.2
2016-Apr-26 13:33N 43°26' E 010°11'4 4.1
2016-Apr-26 12:33N 43°29' E 010°14'1 1.3
2016-Apr-26 11:32N 43°30' E 010°16'0 0.2
2016-Apr-26 10:32N 43°30' E 010°16'0 0.0
2016-Apr-26 09:32N 43°30' E 010°16'0 0.0
2016-Apr-26 08:32N 43°30' E 010°16'0 0.1
2016-Apr-26 07:32N 43°30' E 010°15'0 0.1
2016-Apr-26 06:32N 43°30' E 010°15'0 0.0
2016-Apr-26 05:32N 43°30' E 010°15'0 0.0
2016-Apr-26 04:29N 43°30' E 010°15'0 0.0
2016-Apr-26 03:32N 43°30' E 010°15'0 0.0
2016-Apr-26 02:32N 43°30' E 010°15'2 1.6
2016-Apr-26 01:34N 43°29' E 010°13'1110.9
2016-Apr-26 00:34N 43°21' E 010°03'1211.7
2016-Apr-25 23:34N 43°17' E 009°48'1211.9
2016-Apr-25 22:33N 43°14' E 009°32'1211.9
2016-Apr-25 21:33N 43°10' E 009°17'30711.8
2016-Apr-24 19:33N 40°36' E 003°21'1212.1
2016-Apr-24 18:33N 40°27' E 003°10'1717.5
2016-Apr-24 17:33N 40°14' E 002°55'2120.9
2016-Apr-24 16:33N 39°59' E 002°36'2121.0
2016-Apr-24 15:32N 39°44' E 002°16'2120.9
2016-Apr-24 14:33N 39°31' E 001°55'2120.5
2016-Apr-24 13:33N 39°18' E 001°35'17319.2
2016-Apr-24 04:32N 37°04' W 000°46'22119.3
2016-Apr-23 17:04N 36°01' W 005°10'1019.8
2016-Apr-23 16:34N 36°04' W 005°22'3 2.8
2016-Apr-23 15:31N 36°06' W 005°25'0 0.0
2016-Apr-23 14:25N 36°06' W 005°25'0 0.0
2016-Apr-23 13:31N 36°06' W 005°25'0 0.0
2016-Apr-23 12:31N 36°06' W 005°25'0 0.1
2016-Apr-23 11:31N 36°05' W 005°25'0 0.0
2016-Apr-23 10:31N 36°05' W 005°25'0 0.0
2016-Apr-23 09:31N 36°05' W 005°25'0 0.2
2016-Apr-23 08:22N 36°05' W 005°25'0 0.0
2016-Apr-23 07:25N 36°05' W 005°25'0 0.1
2016-Apr-23 06:31N 36°05' W 005°25'2 1.7
2016-Apr-23 05:33N 36°07' W 005°25'1 1.1
2016-Apr-23 04:29N 36°08' W 005°25'0 0.0
2016-Apr-23 03:28N 36°08' W 005°25'0 0.0
2016-Apr-22 22:19N 36°08' W 005°25'0 0.0
2016-Apr-22 21:25N 36°08' W 005°25'0 0.0
2016-Apr-22 20:31N 36°08' W 005°25'0 0.0
2016-Apr-22 19:29N 36°08' W 005°25'1 1.5
2016-Apr-22 18:33N 36°08' W 005°24'5 5.2
2016-Apr-22 17:33N 36°04' W 005°20'3 2.5
2016-Apr-22 16:33N 36°03' W 005°22'5 5.2
2016-Apr-22 15:33N 35°58' W 005°26'  

Dump ship's entire track history